Time;durP1;ratioP1;P1;durP2;ratioP2;P2;SDS_P1;SDS_P2;PMS_P1;PMS_P2;Temp;Humidity;BMP_temperature;BMP_pressure;BME280_temperature;BME280_humidity;BME280_pressure;Samples;Min_cycle;Max_cycle;Signal;HPM_P1;HPM_P2
2022/06/09 00:00:19;;;;;;;4.55;1.30;;;;;;;13.69;100.00;98147.22;5020406;28;20093;-69
2022/06/09 00:02:48;;;;;;;1.80;1.30;;;;;;;13.71;100.00;98166.84;5029098;28;20503;-69
2022/06/09 00:05:14;;;;;;;5.10;1.40;;;;;;;13.72;100.00;98163.03;5026072;28;20029;-69
2022/06/09 00:07:40;;;;;;;5.15;1.30;;;;;;;13.63;100.00;98156.34;5021855;28;20044;-68
2022/06/09 00:10:12;;;;;;;2.55;1.13;;;;;;;13.78;100.00;98164.81;5022087;28;20025;-68
2022/06/09 00:12:38;;;;;;;2.53;1.45;;;;;;;13.67;100.00;98159.38;5026018;28;20490;-68
2022/06/09 00:15:07;;;;;;;2.55;1.33;;;;;;;13.79;100.00;98173.78;5024533;28;20036;-68
2022/06/09 00:17:32;;;;;;;3.65;1.48;;;;;;;13.84;100.00;98171.19;5030374;28;20072;-68
2022/06/09 00:19:58;;;;;;;4.63;1.40;;;;;;;13.57;100.00;98143.69;5027398;28;20479;-68
2022/06/09 00:22:23;;;;;;;5.70;2.13;;;;;;;13.82;100.00;98185.00;5029927;28;20471;-68
2022/06/09 00:24:48;;;;;;;2.10;1.40;;;;;;;13.73;100.00;98177.47;5029200;28;20071;-69
2022/06/09 00:27:14;;;;;;;3.00;1.80;;;;;;;13.78;100.00;98178.41;5029337;28;20443;-69
2022/06/09 00:29:39;;;;;;;4.55;1.50;;;;;;;13.76;100.00;98168.84;5026361;28;20372;-69
2022/06/09 00:32:05;;;;;;;4.50;1.63;;;;;;;13.86;100.00;98187.25;5032150;28;20113;-68
2022/06/09 00:34:31;;;;;;;4.88;1.40;;;;;;;13.90;100.00;98194.69;5029714;28;20033;-68
2022/06/09 00:36:56;;;;;;;4.88;1.55;;;;;;;13.89;100.00;98197.66;5030061;28;20036;-68
2022/06/09 00:39:22;;;;;;;3.05;1.60;;;;;;;13.54;100.00;98125.13;5029265;28;20041;-69
2022/06/09 00:41:47;;;;;;;2.72;1.70;;;;;;;13.92;100.00;98194.47;5032263;28;20029;-68
2022/06/09 00:44:16;;;;;;;3.05;1.27;;;;;;;13.97;100.00;98200.00;5029649;28;20062;-68
2022/06/09 00:46:42;;;;;;;3.05;1.30;;;;;;;13.95;100.00;98204.84;5030938;28;20401;-69
2022/06/09 00:49:18;;;;;;;2.20;1.50;;;;;;;13.91;100.00;98185.47;5023293;28;20044;-69
2022/06/09 00:51:48;;;;;;;1.48;1.27;;;;;;;14.01;100.00;98190.28;5031120;28;20025;-69
2022/06/09 00:54:23;;;;;;;1.92;1.40;;;;;;;14.13;100.00;98198.44;5030522;28;20025;-69
2022/06/09 00:56:53;;;;;;;2.85;1.20;;;;;;;14.03;100.00;98191.69;5029989;28;20068;-68
2022/06/09 00:59:21;;;;;;;2.45;1.20;;;;;;;14.10;100.00;98196.19;5031312;28;20522;-69
2022/06/09 01:01:47;;;;;;;1.75;1.27;;;;;;;14.00;100.00;98192.19;5030491;28;20032;-69
2022/06/09 01:04:16;;;;;;;2.05;1.20;;;;;;;14.01;100.00;98191.09;5031003;28;20029;-69
2022/06/09 01:06:49;;;;;;;;;;;;;;;14.07;100.00;98196.66;5030689;28;20021;-69
2022/06/09 01:09:19;;;;;;;3.38;1.10;;;;;;;14.02;100.00;98197.41;5029081;28;19925;-68
2022/06/09 01:11:47;;;;;;;2.97;1.40;;;;;;;14.00;100.00;98192.19;5026785;28;20026;-67
2022/06/09 01:14:16;;;;;;;4.47;1.30;;;;;;;13.99;100.00;98190.53;5023322;28;20022;-68
2022/06/09 01:16:57;;;;;;;;;;;;;;;13.95;100.00;98180.38;5029241;28;20112;-69
2022/06/09 01:19:44;;;;;;;2.30;1.25;;;;;;;13.92;100.00;98189.84;5028376;28;19922;-69
2022/06/09 01:22:29;;;;;;;4.13;1.45;;;;;;;13.97;100.00;98178.25;5031386;28;20021;-68
2022/06/09 01:25:18;;;;;;;4.40;1.10;;;;;;;13.91;100.00;98187.34;5023491;28;20482;-69
2022/06/09 01:27:58;;;;;;;2.97;1.20;;;;;;;13.86;100.00;98196.25;5018191;28;20053;-68
2022/06/09 01:30:41;;;;;;;1.58;1.27;;;;;;;13.85;100.00;98197.28;5021963;28;20026;-69
2022/06/09 01:33:13;;;;;;;5.53;1.40;;;;;;;13.89;100.00;98197.66;5039955;28;20033;-69
2022/06/09 01:35:44;;;;;;;6.82;1.50;;;;;;;13.89;100.00;98189.50;5028891;28;20021;-68
2022/06/09 01:38:10;;;;;;;1.42;1.05;;;;;;;13.77;100.00;98176.75;5022653;28;20427;-69
2022/06/09 01:40:36;;;;;;;3.95;1.10;;;;;;;14.00;100.00;98202.25;5020058;28;20029;-69
2022/06/09 01:43:04;;;;;;;2.10;1.10;;;;;;;13.99;100.00;98203.28;5025531;28;20071;-69
2022/06/09 01:45:54;;;;;;;1.70;1.02;;;;;;;13.89;100.00;98203.09;5028792;28;20506;-68
2022/06/09 01:48:24;;;;;;;1.77;1.17;;;;;;;13.90;100.00;98205.56;5030513;28;20075;-69
2022/06/09 01:51:01;;;;;;;2.50;1.10;;;;;;;13.88;100.00;98207.69;5028983;28;20625;-68
2022/06/09 01:53:37;;;;;;;1.45;1.05;;;;;;;13.84;100.00;98209.25;5022487;28;20041;-69
2022/06/09 01:56:43;;;;;;;2.45;1.00;;;;;;;13.80;100.00;98214.31;5022967;28;20025;-69
2022/06/09 01:59:17;;;;;;;2.88;0.90;;;;;;;13.66;100.00;98193.91;5011282;28;20521;-69
2022/06/09 02:01:47;;;;;;;2.03;0.80;;;;;;;13.62;100.00;98205.47;5052395;22;20101;-70
2022/06/09 02:04:22;;;;;;;2.83;1.05;;;;;;;13.70;100.00;98219.56;5049861;28;20097;-69
2022/06/09 02:06:48;;;;;;;0.90;0.70;;;;;;;13.68;100.00;98216.25;5044878;28;20022;-70
2022/06/09 02:09:16;;;;;;;2.22;0.77;;;;;;;13.63;100.00;98216.13;5048068;28;20029;-69
2022/06/09 02:11:46;;;;;;;2.97;0.60;;;;;;;13.59;100.00;98204.88;5049608;28;20075;-72
2022/06/09 02:14:12;;;;;;;5.28;0.60;;;;;;;13.59;100.00;98215.75;5044403;28;20021;-72
2022/06/09 02:16:37;;;;;;;2.22;0.68;;;;;;;13.57;100.00;98222.50;5047748;28;20035;-71
2022/06/09 02:19:04;;;;;;;1.17;0.52;;;;;;;13.54;100.00;98222.97;5048471;28;20021;-69
2022/06/09 02:21:33;;;;;;;1.55;0.60;;;;;;;13.58;100.00;98235.84;5045916;28;20028;-70
2022/06/09 02:23:58;;;;;;;1.38;0.50;;;;;;;13.55;100.00;98233.63;5046371;28;20060;-70
2022/06/09 02:26:24;;;;;;;1.63;0.55;;;;;;;13.51;100.00;98234.31;5045765;28;20075;-70
2022/06/09 02:28:50;;;;;;;3.45;0.50;;;;;;;13.53;100.00;98230.31;5048206;28;20029;-70
2022/06/09 02:31:18;;;;;;;2.33;0.68;;;;;;;13.53;100.00;98224.06;5046743;28;20024;-69
2022/06/09 02:33:44;;;;;;;1.58;0.50;;;;;;;13.56;100.00;98229.00;5047395;28;20025;-69
2022/06/09 02:36:09;;;;;;;1.70;0.70;;;;;;;13.53;100.00;98229.47;5044929;28;20029;-70
2022/06/09 02:38:35;;;;;;;2.10;0.50;;;;;;;13.50;100.00;98238.13;5045480;28;20058;-70
2022/06/09 02:41:00;;;;;;;1.40;0.60;;;;;;;13.48;100.00;98238.34;5046676;28;20025;-71
2022/06/09 02:43:25;;;;;;;2.30;0.68;;;;;;;13.47;100.00;98235.88;5043484;28;20036;-70
2022/06/09 02:45:51;;;;;;;2.47;0.60;;;;;;;13.44;100.00;98241.75;5046810;28;20025;-70
2022/06/09 02:48:18;;;;;;;2.40;0.68;;;;;;;13.40;100.00;98243.31;5043147;28;20095;-71
2022/06/09 02:50:43;;;;;;;2.55;0.70;;;;;;;13.43;100.00;98249.09;5047229;28;20032;-70
2022/06/09 02:53:10;;;;;;;0.63;0.63;;;;;;;13.44;100.00;98247.19;5045841;28;20033;-70
2022/06/09 02:55:35;;;;;;;3.90;0.70;;;;;;;13.37;100.00;98240.00;5049885;28;20040;-71
2022/06/09 02:58:01;;;;;;;0.60;0.60;;;;;;;13.36;100.00;98245.66;5044668;28;20025;-71
2022/06/09 03:00:27;;;;;;;6.43;0.80;;;;;;;13.37;100.00;98253.56;5048189;28;20047;-71
2022/06/09 03:02:58;;;;;;;4.85;0.80;;;;;;;13.35;100.00;98255.69;5048052;28;20024;-70
2022/06/09 03:05:25;;;;;;;2.38;0.98;;;;;;;13.35;100.00;98261.13;5045424;28;20394;-71
2022/06/09 03:07:50;;;;;;;2.70;0.77;;;;;;;13.31;100.00;98249.09;5048369;28;20029;-71
2022/06/09 03:10:16;;;;;;;2.33;0.57;;;;;;;13.13;100.00;98235.56;5047632;28;20032;-71
2022/06/09 03:12:41;;;;;;;1.58;0.73;;;;;;;13.26;100.00;98267.13;5046923;28;20094;-70
2022/06/09 03:15:08;;;;;;;2.42;0.80;;;;;;;13.13;100.00;98249.16;5048109;28;20060;-70
2022/06/09 03:17:36;;;;;;;2.88;0.80;;;;;;;13.20;100.00;98266.16;5049441;28;20033;-73
2022/06/09 03:20:04;;;;;;;2.17;0.95;;;;;;;13.17;100.00;98261.19;5049445;28;20090;-72
2022/06/09 03:22:30;;;;;;;2.00;1.10;;;;;;;13.13;100.00;98249.16;5043722;28;20124;-71
2022/06/09 03:24:56;;;;;;;5.05;0.88;;;;;;;13.16;100.00;98267.69;5050309;28;20357;-72
2022/06/09 03:27:21;;;;;;;1.42;0.98;;;;;;;13.20;100.00;98266.16;5043826;28;20387;-69
2022/06/09 03:29:47;;;;;;;3.88;0.75;;;;;;;13.21;100.00;98261.56;5049133;28;20090;-69
2022/06/09 03:32:12;;;;;;;2.63;0.80;;;;;;;13.19;100.00;98266.41;5047294;28;20405;-69
2022/06/09 03:34:37;;;;;;;3.90;1.10;;;;;;;13.07;100.00;98250.06;5048558;28;20033;-72
2022/06/09 03:37:03;;;;;;;5.20;1.20;;;;;;;13.07;100.00;98252.78;5046523;28;20104;-71
2022/06/09 03:39:29;;;;;;;8.18;1.45;;;;;;;13.02;100.00;98258.94;5046028;28;20033;-70
2022/06/09 03:41:54;;;;;;;1.15;0.93;;;;;;;13.12;100.00;98283.59;5046165;28;20072;-71
2022/06/09 03:44:19;;;;;;;2.35;1.17;;;;;;;13.13;100.00;98287.19;5051352;28;20120;-70
2022/06/09 03:46:45;;;;;;;4.03;1.20;;;;;;;13.20;100.00;98295.22;5047238;28;20025;-71
2022/06/09 03:49:10;;;;;;;0.95;0.70;;;;;;;13.26;100.00;98286.16;5048396;28;20099;-70
2022/06/09 03:51:35;;;;;;;2.35;0.88;;;;;;;13.25;100.00;98290.72;5048759;28;20230;-70
2022/06/09 03:54:01;;;;;;;2.60;1.13;;;;;;;13.27;100.00;98291.34;5047157;28;20044;-69
2022/06/09 03:56:26;;;;;;;2.00;1.00;;;;;;;13.27;100.00;98293.25;5052484;28;20143;-69
2022/06/09 03:58:52;;;;;;;5.40;1.00;;;;;;;13.22;100.00;98291.19;5048871;28;20055;-75
2022/06/09 04:01:18;;;;;;;2.90;0.95;;;;;;;13.11;100.00;98259.41;5044245;28;20029;-74
2022/06/09 04:03:45;;;;;;;3.90;1.13;;;;;;;13.38;100.00;98295.97;5055776;28;20535;-72
2022/06/09 04:06:17;;;;;;;3.17;0.98;;;;;;;13.57;100.00;98304.88;5051416;28;20028;-68
2022/06/09 04:08:42;;;;;;;2.58;1.02;;;;;;;13.60;100.00;98300.88;5048221;28;20048;-72
2022/06/09 04:11:09;;;;;;;1.77;0.93;;;;;;;13.45;100.00;98290.44;5056532;28;20494;-72
2022/06/09 04:13:36;;;;;;;4.82;1.13;;;;;;;13.50;100.00;98306.06;5054534;28;20159;-73
2022/06/09 04:16:04;;;;;;;2.55;1.00;;;;;;;13.51;100.00;98292.22;5050980;28;20049;-73
2022/06/09 04:18:30;;;;;;;2.00;1.02;;;;;;;13.50;100.00;98290.56;5050359;28;20067;-71
2022/06/09 04:20:56;;;;;;;7.32;1.20;;;;;;;13.59;100.00;98310.06;5050124;28;20021;-73
2022/06/09 04:23:21;;;;;;;1.83;1.13;;;;;;;13.63;100.00;98308.56;5049906;28;20063;-71
2022/06/09 04:25:46;;;;;;;4.28;1.40;;;;;;;13.47;100.00;98306.53;5051370;28;20025;-70
2022/06/09 04:28:11;;;;;;;5.22;1.20;;;;;;;13.54;100.00;98318.91;5046059;28;20108;-73
2022/06/09 04:30:37;;;;;;;2.53;1.38;;;;;;;13.43;100.00;98327.88;5055326;28;20301;-73
2022/06/09 04:33:02;;;;;;;2.70;1.20;;;;;;;13.54;100.00;98307.22;5055121;28;20116;-75
2022/06/09 04:35:28;;;;;;;2.17;1.17;;;;;;;13.70;100.00;98305.69;5049540;28;20059;-74
2022/06/09 04:38:03;;;;;;;2.75;1.15;;;;;;;14.03;100.00;98321.44;5049360;28;20044;-74
2022/06/09 04:40:32;;;;;;;3.50;1.67;;;;;;;14.28;100.00;98317.59;5046346;28;20017;-70
2022/06/09 04:42:57;;;;;;;;;;;;;;;14.60;100.00;98327.06;5051649;28;20036;-74
2022/06/09 04:45:23;;;;;;;4.63;1.30;;;;;;;14.84;100.00;98326.97;5049928;28;19921;-73
2022/06/09 04:47:48;;;;;;;4.03;1.30;;;;;;;14.99;100.00;98334.63;5053800;28;20272;-75
2022/06/09 04:50:16;;;;;;;2.92;1.60;;;;;;;15.14;100.00;98343.06;5052860;28;20702;-75
2022/06/09 04:52:41;;;;;;;3.83;1.15;;;;;;;15.09;100.00;98343.81;5046526;28;20022;-74
2022/06/09 04:55:07;;;;;;;2.53;1.42;;;;;;;15.00;100.00;98347.16;5047929;28;20104;-74
2022/06/09 04:57:32;;;;;;;2.60;1.13;;;;;;;14.78;100.00;98347.84;5046083;28;20029;-73
2022/06/09 04:59:57;;;;;;;3.15;1.40;;;;;;;14.40;100.00;98349.19;5043138;28;20029;-72
2022/06/09 05:02:23;;;;;;;7.07;1.73;;;;;;;14.14;100.00;98349.69;5048643;28;20414;-71
2022/06/09 05:04:48;;;;;;;3.53;2.13;;;;;;;13.99;100.00;98352.88;5054146;28;20029;-74
2022/06/09 05:07:13;;;;;;;5.47;2.00;;;;;;;14.03;100.00;98357.63;5052370;28;20474;-72
2022/06/09 05:09:39;;;;;;;3.10;1.92;;;;;;;13.97;100.00;98364.00;5048128;28;20040;-73
2022/06/09 05:12:04;;;;;;;5.50;2.10;;;;;;;14.00;100.00;98360.81;5046196;28;20032;-74
2022/06/09 05:14:30;;;;;;;4.13;1.85;;;;;;;13.95;100.00;98377.00;5051883;28;20053;-74
2022/06/09 05:16:55;;;;;;;4.30;2.03;;;;;;;13.86;100.00;98364.00;5052587;28;20049;-74
2022/06/09 05:19:21;;;;;;;7.82;2.38;;;;;;;14.01;100.00;98367.06;5049257;28;20086;-74
2022/06/09 05:21:46;;;;;;;5.80;1.90;;;;;;;13.91;100.00;98372.28;5049032;28;20031;-76
2022/06/09 05:24:11;;;;;;;6.35;1.75;;;;;;;13.99;100.00;98391.81;5053478;28;20032;-77
2022/06/09 05:26:37;;;;;;;8.65;2.83;;;;;;;13.97;100.00;98374.06;5050869;28;20029;-75
2022/06/09 05:29:03;;;;;;;13.45;2.10;;;;;;;13.98;100.00;98390.13;5052053;28;20043;-74
2022/06/09 05:31:28;;;;;;;4.55;1.52;;;;;;;13.97;100.00;98393.09;5054092;28;20029;-72
2022/06/09 05:33:54;;;;;;;5.70;1.95;;;;;;;14.15;100.00;98375.84;5052396;28;20071;-72
2022/06/09 05:36:19;;;;;;;4.70;1.98;;;;;;;14.28;100.00;98380.19;5049179;28;20031;-73
2022/06/09 05:46:59;;;;;;;5.63;1.98;;;;;;;14.60;100.00;98395.13;5050005;28;20047;-73
2022/06/09 05:49:24;;;;;;;7.00;1.95;;;;;;;14.67;100.00;98408.56;5049698;28;20458;-65
2022/06/09 05:51:52;;;;;;;4.90;1.92;;;;;;;14.78;100.00;98412.38;5053161;28;20021;-73
2022/06/09 05:54:19;;;;;;;4.03;1.70;;;;;;;14.53;100.00;98409.91;5049513;28;20028;-73
2022/06/09 05:56:45;;;;;;;3.33;1.92;;;;;;;14.44;100.00;98404.81;5046852;28;20061;-73
2022/06/09 05:59:10;;;;;;;3.00;1.60;;;;;;;14.07;100.00;98412.38;5058237;28;20048;-72
2022/06/09 06:01:35;;;;;;;5.55;1.88;;;;;;;13.96;100.00;98413.19;5059497;28;20024;-74
2022/06/09 06:04:07;;;;;;;5.57;1.85;;;;;;;14.20;100.00;98424.91;5063463;28;20025;-75
2022/06/09 06:06:35;;;;;;;5.75;1.63;;;;;;;14.10;100.00;98436.41;5060307;28;20082;-75
2022/06/09 06:09:06;;;;;;;5.75;1.98;;;;;;;14.26;100.00;98418.53;5053814;28;21501;-76
2022/06/09 06:11:33;;;;;;;4.85;1.92;;;;;;;14.36;100.00;98437.84;5053311;28;20099;-70
2022/06/09 06:13:59;;;;;;;10.82;2.05;;;;;;;14.57;100.00;98432.88;5052223;28;20091;-69
2022/06/09 06:16:24;;;;;;;3.13;1.90;;;;;;;15.04;100.00;98455.41;5050699;28;20032;-69
2022/06/09 06:18:50;;;;;;;4.38;1.88;;;;;;;15.71;100.00;98459.44;5051780;28;20112;-69
2022/06/09 06:21:16;;;;;;;3.40;1.50;;;;;;;16.34;100.00;98450.13;5050781;28;20430;-69
2022/06/09 06:23:42;;;;;;;6.63;1.65;;;;;;;17.25;100.00;98449.78;5061629;28;20051;-69
2022/06/09 06:26:09;;;;;;;7.10;1.40;;;;;;;16.93;100.00;98449.66;5050957;28;20035;-68
2022/06/09 06:28:34;;;;;;;7.18;1.50;;;;;;;15.99;100.00;98466.78;5051267;28;20024;-68
2022/06/09 06:31:00;;;;;;;4.40;1.40;;;;;;;15.11;100.00;98458.81;5052177;28;20059;-69
2022/06/09 06:33:26;;;;;;;2.95;1.40;;;;;;;15.12;100.00;98446.88;5054148;28;20017;-72
2022/06/09 06:35:51;;;;;;;4.32;1.52;;;;;;;15.16;100.00;98465.44;5045516;28;20487;-67
2022/06/09 06:38:17;;;;;;;7.30;1.50;;;;;;;15.71;100.00;98467.63;5051609;28;20040;-70
2022/06/09 06:40:42;;;;;;;2.38;1.00;;;;;;;15.93;100.00;98465.03;5048375;28;20022;-70
2022/06/09 06:43:08;;;;;;;3.45;1.27;;;;;;;16.19;100.00;98474.44;5060790;28;20036;-68
2022/06/09 06:45:33;;;;;;;4.93;1.40;;;;;;;16.36;100.00;98488.94;5061707;28;20035;-67
2022/06/09 06:47:58;;;;;;;4.63;1.30;;;;;;;17.08;100.00;98482.66;5054850;28;20037;-67
2022/06/09 06:50:24;;;;;;;3.95;1.10;;;;;;;17.38;100.00;98484.09;5055868;28;20027;-67
2022/06/09 06:52:50;;;;;;;3.45;1.05;;;;;;;17.47;100.00;98495.41;5060248;28;20021;-67
2022/06/09 06:55:18;;;;;;;3.40;0.98;;;;;;;17.68;100.00;98497.31;5058958;28;20055;-67
2022/06/09 06:57:44;;;;;;;5.72;1.23;;;;;;;17.43;100.00;98497.84;5046869;28;20059;-67
2022/06/09 07:00:15;;;;;;;5.25;1.30;;;;;;;17.10;100.00;98504.25;5046012;28;20028;-72
2022/06/09 07:02:40;;;;;;;10.95;1.65;;;;;;;16.59;100.00;98487.94;5047860;28;20449;-73
2022/06/09 07:05:08;;;;;;;7.70;1.13;;;;;;;16.15;100.00;98517.81;5051382;28;20139;-68
2022/06/09 07:07:33;;;;;;;5.65;1.13;;;;;;;16.11;100.00;98515.81;5042990;28;20205;-71
2022/06/09 07:09:58;;;;;;;5.07;1.42;;;;;;;16.13;100.00;98513.66;5047931;28;20033;-67
2022/06/09 07:12:24;;;;;;;2.80;1.50;;;;;;;16.06;100.00;98510.25;5061145;28;20031;-74
2022/06/09 07:14:49;;;;;;;4.93;1.13;;;;;;;16.79;100.00;98516.66;5059273;28;20121;-74
2022/06/09 07:17:14;;;;;;;5.80;1.10;;;;;;;17.26;100.00;98525.22;5056615;28;20044;-71
2022/06/09 07:19:40;;;;;;;5.90;1.17;;;;;;;17.45;100.00;98516.75;5063898;28;20025;-68
2022/06/09 07:22:06;;;;;;;8.30;1.65;;;;;;;17.49;100.00;98517.88;5062027;28;20044;-68
2022/06/09 07:24:32;;;;;;;7.80;1.20;;;;;;;17.96;100.00;98512.66;5048407;28;20053;-67
2022/06/09 07:26:57;;;;;;;4.97;1.00;;;;;;;18.31;100.00;98527.81;5054326;28;20079;-67
2022/06/09 07:29:25;;;;;;;4.40;1.23;;;;;;;18.94;100.00;98522.53;5049963;28;20052;-72
2022/06/09 07:31:50;;;;;;;2.53;1.27;;;;;;;19.56;99.55;98509.09;5052163;28;20075;-73
2022/06/09 07:34:16;;;;;;;4.65;1.20;;;;;;;19.68;97.00;98531.69;5047661;28;20028;-70
2022/06/09 07:36:42;;;;;;;7.57;1.13;;;;;;;18.96;100.00;98530.47;5047880;28;20025;-71
2022/06/09 07:39:07;;;;;;;5.57;1.45;;;;;;;18.03;100.00;98537.09;5051917;28;20093;-70
2022/06/09 07:41:33;;;;;;;7.78;1.40;;;;;;;17.44;100.00;98543.25;5050463;28;20025;-70
2022/06/09 07:44:01;;;;;;;7.35;1.30;;;;;;;16.79;100.00;98531.16;5050647;28;20115;-71
2022/06/09 07:46:26;;;;;;;7.45;1.75;;;;;;;16.77;100.00;98541.50;5053094;28;20478;-70
2022/06/09 07:48:52;;;;;;;6.90;1.95;;;;;;;17.08;100.00;98540.06;5050916;28;20103;-69
2022/06/09 07:51:18;;;;;;;3.42;1.17;;;;;;;18.81;100.00;98545.75;5054191;28;20021;-69
2022/06/09 07:53:43;;;;;;;6.65;1.35;;;;;;;19.73;95.70;98537.22;5054204;28;20021;-73
2022/06/09 07:56:09;;;;;;;8.98;1.17;;;;;;;20.64;82.80;98532.13;5053423;28;20048;-73
2022/06/09 07:58:34;;;;;;;3.88;1.08;;;;;;;20.05;88.18;98541.69;5053296;28;20124;-75
2022/06/09 08:00:59;;;;;;;3.35;1.23;;;;;;;18.93;99.84;98547.47;5056138;28;20016;-70
2022/06/09 08:03:26;;;;;;;7.45;1.70;;;;;;;18.13;100.00;98547.31;5058325;28;20470;-71
2022/06/09 08:05:53;;;;;;;5.75;1.30;;;;;;;17.77;100.00;98546.94;5055067;28;20016;-70
2022/06/09 08:08:19;;;;;;;6.75;1.25;;;;;;;17.53;100.00;98547.19;5053080;28;20039;-69
2022/06/09 08:10:45;;;;;;;2.28;0.80;;;;;;;17.74;100.00;98548.25;5057642;28;20021;-69
2022/06/09 08:13:12;;;;;;;4.25;1.00;;;;;;;19.22;100.00;98542.44;5105024;22;20055;-72
2022/06/09 08:15:38;;;;;;;4.90;1.15;;;;;;;23.59;67.61;98541.63;5064662;28;20037;-70
2022/06/09 08:18:04;;;;;;;4.78;0.90;;;;;;;27.04;53.47;98543.97;5059279;28;20036;-71
2022/06/09 08:20:32;;;;;;;7.50;1.10;;;;;;;29.02;44.70;98536.28;5067639;28;20170;-72
2022/06/09 08:23:08;;;;;;;4.43;1.00;;;;;;;25.80;47.49;98542.41;5070077;28;20687;-71
2022/06/09 08:25:34;;;;;;;4.70;0.90;;;;;;;23.38;56.18;98543.81;5044231;28;20489;-73
2022/06/09 08:28:00;;;;;;;5.65;0.93;;;;;;;20.94;71.56;98556.03;5042449;28;20563;-70
2022/06/09 08:30:25;;;;;;;7.60;1.20;;;;;;;19.40;87.02;98557.63;5049613;28;20064;-68
2022/06/09 08:32:51;;;;;;;5.00;0.93;;;;;;;18.79;98.32;98549.84;5043277;28;20063;-68
2022/06/09 08:35:18;;;;;;;4.68;1.00;;;;;;;22.23;70.24;98540.69;5042665;28;20486;-65
2022/06/09 08:37:48;;;;;;;3.38;0.57;;;;;;;25.76;52.54;98541.41;5049909;28;20568;-66
2022/06/09 08:40:17;;;;;;;4.13;0.80;;;;;;;25.90;50.33;98546.94;5037267;28;20029;-67
2022/06/09 08:42:48;;;;;;;;;;;;;;;23.96;55.18;98551.94;5048661;28;20031;-68
2022/06/09 08:45:19;;;;;;;4.82;1.13;;;;;;;22.00;67.08;98562.28;5036615;28;19913;-70
2022/06/09 08:47:49;;;;;;;8.15;1.40;;;;;;;20.51;78.37;98542.56;5035326;28;20025;-67
2022/06/09 08:50:39;;;;;;;6.65;0.80;;;;;;;19.76;85.24;98564.13;5041933;28;20040;-65
2022/06/09 08:53:21;;;;;;;4.32;1.20;;;;;;;20.97;77.54;98560.97;5050755;28;20028;-67
2022/06/09 08:55:59;;;;;;;8.02;0.80;;;;;;;24.13;57.68;98523.78;5041725;28;20082;-67
2022/06/09 08:58:45;;;;;;;4.47;0.70;;;;;;;27.04;47.62;98560.63;5041787;28;20040;-66
2022/06/09 09:01:10;;;;;;;3.47;0.82;;;;;;;28.90;42.36;98569.59;5050540;28;20524;-65
2022/06/09 09:03:40;;;;;;;3.20;0.80;;;;;;;29.26;41.30;98560.00;5046717;28;20025;-64
2022/06/09 09:06:24;;;;;;;4.28;0.77;;;;;;;30.00;39.41;98569.03;5044963;28;20051;-65
2022/06/09 09:08:50;;;;;;;5.78;0.88;;;;;;;29.11;41.50;98566.97;5039257;28;20028;-70
2022/06/09 09:11:49;;;;;;;3.83;0.70;;;;;;;25.90;46.21;98567.16;5047996;28;20048;-68
2022/06/09 09:14:28;;;;;;;3.78;1.05;;;;;;;23.73;52.95;98577.66;5043496;28;20028;-66
2022/06/09 09:17:11;;;;;;;4.13;0.70;;;;;;;24.85;49.85;98586.28;5049632;28;20035;-67
2022/06/09 09:19:59;;;;;;;8.25;0.88;;;;;;;25.40;47.30;98574.53;5048421;28;20024;-66
2022/06/09 09:22:47;;;;;;;3.50;0.73;;;;;;;28.54;41.62;98565.19;5047748;28;20025;-70
2022/06/09 09:25:41;;;;;;;5.22;1.00;;;;;;;26.62;45.68;98562.81;5044224;28;20280;-68
2022/06/09 09:56:34;;;;;;;2.72;0.68;;;;;;;25.60;44.42;98588.00;5098815;27;21112;-68
2022/06/09 09:59:01;;;;;;;6.20;0.93;;;;;;;24.91;47.34;98583.13;5101334;28;20112;-70
2022/06/09 10:01:32;;;;;;;4.53;1.08;;;;;;;26.52;42.49;98588.84;5099806;28;20784;-69
2022/06/09 10:09:32;;;;;;;4.97;1.00;;;;;;;26.80;43.14;98567.34;5103959;28;20050;-67
2022/06/09 10:12:07;;;;;;;3.40;0.80;;;;;;;28.70;40.96;98581.41;5103219;28;20028;-66
2022/06/09 10:14:51;;;;;;;2.83;0.68;;;;;;;28.37;40.52;98588.25;5102721;28;20067;-66
2022/06/09 10:17:38;;;;;;;4.40;0.80;;;;;;;28.77;39.72;98590.09;5103324;28;20376;-63
2022/06/09 10:20:12;;;;;;;3.85;0.70;;;;;;;29.17;38.56;98592.66;5106576;28;20027;-65
2022/06/09 10:22:39;;;;;;;2.70;0.77;;;;;;;28.12;39.16;98587.06;5096718;28;20085;-66
2022/06/09 10:25:19;;;;;;;5.40;0.70;;;;;;;28.46;38.41;98593.84;5093653;28;20086;-65
2022/06/09 10:27:52;;;;;;;4.85;0.60;;;;;;;29.10;37.06;98586.78;5099718;28;20027;-65
2022/06/09 10:30:43;;;;;;;1.52;0.40;;;;;;;29.05;37.22;98590.53;5094677;28;20073;-64
2022/06/09 10:33:26;;;;;;;4.75;0.77;;;;;;;29.88;37.51;98601.25;5090810;28;20034;-64
2022/06/09 10:36:12;;;;;;;4.60;0.70;;;;;;;25.45;42.03;98610.47;5088092;28;20024;-70
2022/06/09 10:38:53;;;;;;;3.40;0.60;;;;;;;24.30;46.10;98613.66;5078561;28;20036;-70
2022/06/09 10:41:36;;;;;;;3.35;0.70;;;;;;;23.50;50.47;98617.94;5102650;28;20203;-69
2022/06/09 10:44:14;;;;;;;3.60;0.73;;;;;;;23.04;50.18;98605.44;5091718;28;20476;-72
2022/06/09 10:55:14;;;;;;;3.00;0.80;;;;;;;25.81;46.03;98593.94;5097321;28;20435;-73
2022/06/09 10:56:13;;;;;;;1.63;0.43;;;;;;;25.47;41.13;98614.56;5100726;28;20389;-67
2022/06/09 10:58:47;;;;;;;3.35;0.65;;;;;;;27.61;39.80;98607.16;5073452;28;20098;-67
2022/06/09 11:01:24;;;;;;;2.63;0.50;;;;;;;29.29;37.91;98617.84;5105995;28;20446;-68
2022/06/09 11:03:50;;;;;;;3.92;1.00;;;;;;;29.20;36.01;98617.06;5102231;28;20050;-67
2022/06/09 11:06:40;;;;;;;4.90;1.02;;;;;;;29.60;35.89;98608.41;5091923;28;20099;-69
2022/06/09 11:09:32;;;;;;;2.28;0.60;;;;;;;30.90;36.18;98604.84;5093354;28;20032;-67
2022/06/09 11:12:26;;;;;;;3.38;0.82;;;;;;;30.67;35.96;98609.94;5088891;28;20023;-69
2022/06/09 11:15:00;;;;;;;5.15;0.82;;;;;;;30.76;35.45;98612.69;5085698;28;20024;-69
2022/06/09 11:17:49;;;;;;;4.10;0.70;;;;;;;30.47;36.39;98611.59;5085599;28;20106;-67
2022/06/09 11:20:31;;;;;;;4.90;0.82;;;;;;;31.56;33.67;98606.81;5088767;28;20016;-67
2022/06/09 11:23:17;;;;;;;5.50;0.70;;;;;;;30.50;35.38;98608.13;5073899;28;20035;-66
2022/06/09 11:26:19;;;;;;;1.75;0.50;;;;;;;28.72;37.98;98618.09;5077113;28;20103;-68
2022/06/09 11:28:56;;;;;;;3.58;0.85;;;;;;;26.66;39.77;98611.78;5082123;28;20030;-66
2022/06/09 11:31:38;;;;;;;2.00;0.60;;;;;;;24.96;43.07;98625.69;5081706;28;20393;-65
2022/06/09 11:34:20;;;;;;;2.65;1.05;;;;;;;25.32;43.62;98623.97;5078520;28;20090;-64
2022/06/09 11:36:57;;;;;;;2.67;0.50;;;;;;;27.30;40.49;98621.88;5085701;28;20031;-64
2022/06/09 11:39:28;;;;;;;3.08;0.60;;;;;;;26.33;42.54;98633.34;5090352;28;20111;-71
2022/06/09 11:42:03;;;;;;;3.05;0.60;;;;;;;25.27;43.35;98626.00;5089198;28;20073;-67
2022/06/09 11:44:39;;;;;;;2.42;0.60;;;;;;;25.97;40.82;98628.56;5087193;28;20020;-65
2022/06/09 11:47:11;;;;;;;1.45;0.50;;;;;;;26.75;38.97;98620.19;5088307;28;20024;-66
2022/06/09 11:49:41;;;;;;;3.88;0.57;;;;;;;24.76;41.05;98615.75;5090473;28;20028;-67
2022/06/09 11:52:10;;;;;;;2.33;0.50;;;;;;;23.77;44.78;98629.28;5083790;28;20028;-65
2022/06/09 11:54:41;;;;;;;;;;;;;;;23.03;46.88;98622.25;5083887;28;20032;-70
2022/06/09 11:57:15;;;;;;;3.85;0.52;;;;;;;22.91;49.52;98619.84;5080485;28;20273;-72
2022/06/09 12:00:19;;;;;;;4.82;0.88;;;;;;;22.22;52.53;98630.81;5074010;28;20029;-71
2022/06/09 12:02:47;;;;;;;1.90;0.55;;;;;;;23.76;49.96;98624.88;5077439;28;20063;-70
2022/06/09 12:05:22;;;;;;;3.90;0.60;;;;;;;26.09;44.47;98622.47;5084530;28;20028;-67
2022/06/09 12:08:04;;;;;;;3.45;0.47;;;;;;;27.41;41.87;98616.91;5081286;28;20027;-66
2022/06/09 12:11:14;;;;;;;6.68;0.80;;;;;;;25.64;43.07;98624.22;5081393;28;20036;-64
2022/06/09 12:13:58;;;;;;;3.38;0.73;;;;;;;25.98;43.17;98627.41;5070962;28;20052;-68
2022/06/09 12:16:57;;;;;;;3.00;0.45;;;;;;;27.36;39.50;98617.84;5073056;28;20023;-67
2022/06/09 12:19:31;;;;;;;1.90;0.57;;;;;;;25.45;42.61;98630.66;5072779;28;20035;-66
2022/06/09 12:22:18;;;;;;;5.15;0.75;;;;;;;23.90;45.50;98635.22;5076643;28;20035;-66
2022/06/09 12:25:10;;;;;;;3.97;0.90;;;;;;;23.26;50.00;98649.09;5075293;28;20024;-67
2022/06/09 12:27:36;;;;;;;3.67;0.90;;;;;;;23.14;51.04;98643.16;5075077;28;20036;-68
2022/06/09 12:30:02;;;;;;;7.20;1.00;;;;;;;22.46;51.68;98649.41;5079577;28;20047;-67
2022/06/09 12:32:41;;;;;;;4.93;0.70;;;;;;;21.88;52.60;98648.00;5073106;28;20497;-66